Swainton, New Jersey
Current Conditions -  °F | °C
As of 8:35 PM on Friday 31 Oct 2014 (Local Time) from KWWD Reporting Station
Overcast Overcast  
Wind Chill: 50°   Ceiling: 3000
Heat Index: 50°   Visibility: 10mi
Dew Point: 37°   Wind: 7mph
Humidity: 62%   Direction: 360°N
Pressure: 29.83"   Gusts: NA
Location:  39.1108°N, 74.8241°W
Report Text: KWWD 010035Z AUTO 36006KT 10SM OVC030 10/03 A2983 RMK AO1
Loading
Personal Weather Stations






























Interactive Weather Map New forecast layout! Learn more

10-Day Weather Forecast

Advertisements
Track Severe Weather on mobile